Time;durP1;ratioP1;P1;durP2;ratioP2;P2;SDS_P1;SDS_P2;PMS_P1;PMS_P2;Temp;Humidity;BMP_temperature;BMP_pressure;BME280_temperature;BME280_humidity;BME280_pressure;Samples;Min_cycle;Max_cycle;Signal;HPM_P1;HPM_P2
2022/12/01 00:00:00;;;;;;;36.05;18.42;;;9.30;76.60;;;;;;5041179;28;20037;-65
2022/12/01 00:02:28;;;;;;;36.88;20.13;;;9.30;76.60;;;;;;5050797;28;20338;-65
2022/12/01 00:04:54;;;;;;;38.25;18.83;;;9.30;76.60;;;;;;5037784;28;20035;-65
2022/12/01 00:07:19;;;;;;;38.17;19.08;;;9.30;76.70;;;;;;5043311;28;20033;-65
2022/12/01 00:12:30;;;;;;;37.28;20.55;;;9.30;76.70;;;;;;5047371;28;20029;-65
2022/12/01 00:14:59;;;;;;;37.70;18.75;;;9.30;76.70;;;;;;5046872;28;20035;-65
2022/12/01 00:17:29;;;;;;;40.38;20.30;;;9.30;76.70;;;;;;5048908;28;20037;-63
2022/12/01 00:19:55;;;;;;;38.67;20.88;;;9.30;76.70;;;;;;5043891;28;20041;-63
2022/12/01 00:22:20;;;;;;;42.00;18.90;;;9.30;76.80;;;;;;5042175;28;20455;-63
2022/12/01 00:24:46;;;;;;;38.70;20.25;;;9.20;76.70;;;;;;5051186;28;20056;-63
2022/12/01 00:27:12;;;;;;;36.53;20.23;;;9.30;76.80;;;;;;5035397;28;20416;-63
2022/12/01 00:29:37;;;;;;;38.33;19.13;;;9.30;76.80;;;;;;5050584;28;20438;-63
2022/12/01 00:32:03;;;;;;;38.25;19.27;;;9.30;76.80;;;;;;5034809;28;20434;-63
2022/12/01 00:34:28;;;;;;;38.92;18.77;;;9.30;76.90;;;;;;5042658;28;20017;-65
2022/12/01 00:36:54;;;;;;;39.65;19.83;;;9.30;77.50;;;;;;5046080;28;20040;-65
2022/12/01 00:39:20;;;;;;;36.28;19.75;;;9.30;76.90;;;;;;5045196;28;20116;-65
2022/12/01 00:41:46;;;;;;;38.38;18.67;;;9.30;76.90;;;;;;5040942;28;20536;-65
2022/12/01 00:44:11;;;;;;;40.05;20.98;;;9.30;76.90;;;;;;5042236;28;20021;-65
2022/12/01 00:46:37;;;;;;;36.97;18.75;;;9.30;76.90;;;;;;5054982;28;20067;-65
2022/12/01 00:49:03;;;;;;;36.35;18.98;;;9.30;76.90;;;;;;5039525;28;20119;-65
2022/12/01 00:51:29;;;;;;;39.67;19.58;;;9.30;76.90;;;;;;5041806;28;20400;-65
2022/12/01 00:53:55;;;;;;;40.97;20.27;;;9.30;76.90;;;;;;5035803;28;20024;-65
2022/12/01 00:56:21;;;;;;;38.75;20.88;;;9.30;76.90;;;;;;5037164;28;20033;-65
2022/12/01 00:58:46;;;;;;;39.88;21.00;;;9.20;76.90;;;;;;5049723;28;20057;-65
2022/12/01 01:01:12;;;;;;;38.75;19.88;;;9.30;77.00;;;;;;5038605;28;20032;-65
2022/12/01 01:03:37;;;;;;;41.75;19.90;;;9.20;76.90;;;;;;5040264;28;20396;-65
2022/12/01 01:06:09;;;;;;;41.58;20.77;;;9.20;76.90;;;;;;5042300;28;20125;-66
2022/12/01 01:08:35;;;;;;;39.70;21.55;;;9.30;77.00;;;;;;5046094;28;20364;-65
2022/12/01 01:11:00;;;;;;;38.70;19.92;;;9.30;77.00;;;;;;5044545;28;20120;-65
2022/12/01 01:13:27;;;;;;;35.97;19.45;;;9.20;77.00;;;;;;5052313;28;20098;-65
2022/12/01 01:16:08;;;;;;;38.45;20.20;;;9.20;77.00;;;;;;5051672;28;20115;-65
2022/12/01 01:18:34;;;;;;;38.70;19.15;;;9.20;77.00;;;;;;5055573;28;20029;-65
2022/12/01 01:21:06;;;;;;;39.53;19.80;;;9.20;77.00;;;;;;5027296;28;20061;-65
2022/12/01 01:23:33;;;;;;;35.35;20.00;;;9.20;77.00;;;;;;5053855;28;20025;-65
2022/12/01 01:26:07;;;;;;;36.53;20.58;;;9.20;77.00;;;;;;5046522;28;20439;-66
2022/12/01 01:28:33;;;;;;;38.28;20.17;;;9.20;77.00;;;;;;5036576;28;20362;-65
2022/12/01 01:31:03;;;;;;;36.08;17.83;;;9.20;77.00;;;;;;5038838;28;20030;-65
2022/12/01 01:33:29;;;;;;;32.10;19.27;;;9.20;77.00;;;;;;5036826;28;20364;-65
2022/12/01 01:35:58;;;;;;;36.85;21.08;;;9.20;77.00;;;;;;5045774;28;20032;-65
2022/12/01 01:38:24;;;;;;;35.75;19.90;;;9.20;77.00;;;;;;5040141;28;20025;-65
2022/12/01 01:40:50;;;;;;;34.28;19.58;;;9.30;77.00;;;;;;5044004;28;20473;-65
2022/12/01 01:43:37;;;;;;;35.75;20.25;;;9.20;77.00;;;;;;5034411;28;20036;-65
2022/12/01 01:46:04;;;;;;;34.53;19.67;;;9.30;77.00;;;;;;5037836;28;20473;-65
2022/12/01 01:48:30;;;;;;;36.22;20.15;;;9.20;76.90;;;;;;5036295;28;20204;-65
2022/12/01 01:50:56;;;;;;;33.92;19.33;;;9.20;76.90;;;;;;5041292;28;20108;-65
2022/12/01 01:53:22;;;;;;;35.10;19.85;;;9.20;77.00;;;;;;5035018;28;20021;-65
2022/12/01 01:55:48;;;;;;;37.95;20.63;;;9.20;77.00;;;;;;5037725;28;20143;-65
2022/12/01 01:58:14;;;;;;;37.53;20.05;;;9.20;77.00;;;;;;5038808;28;20037;-65
2022/12/01 02:00:43;;;;;;;37.25;20.48;;;9.20;77.10;;;;;;5038111;28;20041;-65
2022/12/01 02:03:11;;;;;;;39.17;21.67;;;9.20;77.00;;;;;;5040803;28;20437;-65
2022/12/01 02:05:38;;;;;;;33.38;18.88;;;9.20;77.10;;;;;;5038069;28;20029;-65
2022/12/01 02:08:04;;;;;;;35.47;19.30;;;9.20;77.10;;;;;;5022817;28;20102;-66
2022/12/01 02:10:54;;;;;;;38.70;20.60;;;9.10;77.10;;;;;;5030020;28;20040;-65
2022/12/01 02:13:41;;;;;;;34.38;19.27;;;9.20;77.10;;;;;;5048561;28;20030;-65
2022/12/01 02:16:43;;;;;;;35.90;20.88;;;9.20;77.10;;;;;;5034413;28;20041;-65
2022/12/01 02:19:27;;;;;;;39.05;19.33;;;9.10;77.00;;;;;;5035036;28;20042;-65
2022/12/01 02:22:20;;;;;;;36.20;19.10;;;9.10;77.00;;;;;;5040453;28;20034;-65
2022/12/01 02:25:16;;;;;;;38.33;20.05;;;9.10;77.00;;;;;;5016653;28;20037;-65
2022/12/01 02:28:03;;;;;;;39.42;19.55;;;9.20;77.20;;;;;;5026199;28;20025;-65
2022/12/01 02:30:48;;;;;;;40.38;19.88;;;9.10;77.20;;;;;;5033158;28;20358;-65
2022/12/01 02:33:36;;;;;;;36.47;19.52;;;9.10;77.20;;;;;;5034271;28;20518;-65
2022/12/01 02:36:40;;;;;;;42.85;21.85;;;9.10;77.20;;;;;;5031342;28;20033;-65
2022/12/01 02:39:13;;;;;;;40.45;20.05;;;9.10;77.20;;;;;;5032132;28;20037;-65
2022/12/01 02:41:44;;;;;;;42.15;22.15;;;9.10;77.20;;;;;;5033739;28;20036;-65
2022/12/01 02:44:31;;;;;;;41.95;22.08;;;9.10;77.30;;;;;;5033365;28;20031;-65
2022/12/01 02:47:01;;;;;;;34.05;19.40;;;9.10;77.30;;;;;;5032801;28;20033;-65
2022/12/01 02:49:34;;;;;;;40.25;19.67;;;9.10;77.40;;;;;;5033356;28;20032;-65
2022/12/01 02:52:01;;;;;;;38.13;20.60;;;9.10;77.40;;;;;;5028242;28;20040;-65
2022/12/01 02:54:30;;;;;;;38.85;20.90;;;9.10;77.40;;;;;;5032052;28;20053;-65
2022/12/01 02:56:56;;;;;;;38.28;21.50;;;9.10;77.40;;;;;;5032250;28;20516;-66
2022/12/01 02:59:22;;;;;;;40.65;20.83;;;9.10;77.40;;;;;;5017457;28;20065;-65
2022/12/01 03:01:59;;;;;;;47.08;21.90;;;9.10;77.50;;;;;;5033191;28;20060;-65
2022/12/01 03:04:46;;;;;;;39.25;21.02;;;9.10;77.60;;;;;;5032327;28;20128;-65
2022/12/01 03:07:47;;;;;;;41.67;22.75;;;9.10;77.50;;;;;;5038612;28;20053;-65
2022/12/01 03:10:26;;;;;;;44.30;22.42;;;9.10;78.10;;;;;;5019822;28;20033;-65
2022/12/01 03:13:15;;;;;;;43.40;22.42;;;9.10;77.50;;;;;;5033073;28;20025;-65
2022/12/01 03:16:00;;;;;;;47.42;22.90;;;9.10;77.50;;;;;;5032683;28;20039;-65
2022/12/01 03:18:34;;;;;;;43.50;20.90;;;9.10;77.50;;;;;;5033532;28;20040;-65
2022/12/01 03:21:27;;;;;;;42.08;22.23;;;9.10;77.50;;;;;;5031820;28;20059;-65
2022/12/01 03:24:10;;;;;;;44.63;22.40;;;9.10;77.60;;;;;;5033238;28;20394;-65
2022/12/01 03:26:39;;;;;;;42.75;23.17;;;9.10;77.60;;;;;;5027406;28;20096;-65
2022/12/01 03:29:12;;;;;;;45.13;23.05;;;9.10;77.70;;;;;;5020983;28;20136;-65
2022/12/01 03:31:43;;;;;;;47.30;22.67;;;9.10;77.70;;;;;;5030838;28;20029;-65
2022/12/01 03:34:16;;;;;;;43.25;23.38;;;9.10;77.60;;;;;;5038730;28;20105;-65
2022/12/01 03:36:47;;;;;;;43.10;23.08;;;9.10;77.70;;;;;;5036412;28;20399;-65
2022/12/01 03:39:18;;;;;;;47.03;24.63;;;9.10;77.70;;;;;;5036082;28;20469;-65
2022/12/01 03:41:51;;;;;;;44.70;22.92;;;9.10;77.70;;;;;;5036201;28;20115;-65
2022/12/01 03:44:21;;;;;;;42.63;22.65;;;9.10;77.70;;;;;;5036722;28;20350;-65
2022/12/01 03:46:53;;;;;;;48.53;23.90;;;9.00;77.60;;;;;;5034349;28;20029;-65
2022/12/01 03:49:21;;;;;;;39.80;21.65;;;9.10;77.70;;;;;;5035953;28;20113;-65
2022/12/01 03:52:15;;;;;;;40.05;22.25;;;9.10;77.70;;;;;;5034449;28;20358;-65
2022/12/01 03:55:18;;;;;;;43.90;21.60;;;9.10;77.60;;;;;;5034704;28;20078;-65
2022/12/01 03:57:48;;;;;;;45.22;22.17;;;9.00;77.60;;;;;;5029170;28;20037;-65
2022/12/01 04:00:15;;;;;;;42.30;21.90;;;9.00;77.60;;;;;;5036987;28;20362;-65
2022/12/01 04:02:43;;;;;;;37.80;21.48;;;9.00;77.60;;;;;;5036957;28;20099;-65
2022/12/01 04:05:09;;;;;;;38.55;21.60;;;9.00;77.70;;;;;;5037211;28;20029;-65
2022/12/01 04:07:38;;;;;;;39.10;20.30;;;9.00;77.60;;;;;;5033916;28;20211;-65
2022/12/01 04:10:05;;;;;;;40.70;22.05;;;9.00;77.60;;;;;;5034873;28;20032;-65
2022/12/01 04:12:32;;;;;;;43.25;21.85;;;9.00;77.60;;;;;;5033907;28;20458;-65
2022/12/01 04:15:04;;;;;;;40.50;21.17;;;9.00;77.60;;;;;;5036000;28;20033;-65
2022/12/01 04:17:30;;;;;;;40.65;22.27;;;9.00;77.60;;;;;;5027011;28;20056;-66
2022/12/01 04:19:56;;;;;;;39.03;21.25;;;9.00;77.60;;;;;;5036051;28;20049;-65
2022/12/01 04:22:22;;;;;;;43.58;21.92;;;9.00;77.60;;;;;;5021697;28;20048;-65
2022/12/01 04:24:48;;;;;;;42.42;23.58;;;9.00;77.90;;;;;;5035136;28;20112;-65
2022/12/01 04:27:14;;;;;;;44.55;21.08;;;9.00;77.50;;;;;;5038486;28;20120;-65
2022/12/01 04:29:40;;;;;;;43.47;22.55;;;9.00;77.50;;;;;;5038452;28;20111;-65
2022/12/01 04:32:05;;;;;;;39.90;21.20;;;9.00;77.50;;;;;;5032559;28;21046;-65
2022/12/01 04:34:31;;;;;;;40.30;21.27;;;9.00;77.40;;;;;;5039886;28;20056;-65
2022/12/01 04:36:57;;;;;;;39.95;22.50;;;9.00;77.40;;;;;;5034556;28;20038;-65
2022/12/01 04:39:23;;;;;;;41.08;21.27;;;9.00;77.40;;;;;;5034667;28;20033;-65
2022/12/01 04:41:48;;;;;;;40.25;22.48;;;9.00;77.40;;;;;;5033098;28;20065;-65
2022/12/01 04:44:14;;;;;;;36.30;21.65;;;9.00;77.40;;;;;;5031946;28;20037;-65
2022/12/01 04:46:40;;;;;;;39.72;22.05;;;9.00;77.40;;;;;;5031832;28;20037;-65
2022/12/01 04:49:05;;;;;;;38.10;21.48;;;9.00;77.40;;;;;;5030949;28;20033;-65
2022/12/01 04:51:31;;;;;;;42.03;21.58;;;9.00;77.30;;;;;;5033537;28;20028;-65
2022/12/01 04:53:57;;;;;;;38.90;22.60;;;9.00;77.30;;;;;;5034395;28;20021;-65
2022/12/01 04:56:23;;;;;;;40.10;21.48;;;9.00;77.30;;;;;;5034621;28;20413;-65
2022/12/01 04:58:48;;;;;;;38.10;21.52;;;9.00;77.30;;;;;;5035435;28;20121;-65
2022/12/01 05:01:16;;;;;;;40.20;22.17;;;9.00;77.30;;;;;;5035384;28;20029;-65
2022/12/01 05:03:44;;;;;;;37.40;20.90;;;9.00;77.20;;;;;;5033286;28;20433;-65
2022/12/01 05:06:16;;;;;;;38.65;21.92;;;9.00;77.30;;;;;;5033975;28;20110;-65
2022/12/01 05:08:41;;;;;;;37.97;21.08;;;8.90;77.20;;;;;;5032875;28;20124;-65
2022/12/01 05:11:10;;;;;;;40.90;21.67;;;9.00;77.20;;;;;;5034231;28;20108;-65
2022/12/01 05:13:36;;;;;;;42.70;21.73;;;9.00;77.20;;;;;;5033333;28;20026;-65
2022/12/01 05:16:10;;;;;;;41.10;21.20;;;9.00;77.20;;;;;;5035274;28;20038;-66
2022/12/01 05:18:36;;;;;;;38.22;20.48;;;8.90;77.10;;;;;;5033093;28;20076;-65
2022/12/01 05:21:04;;;;;;;40.28;22.77;;;8.90;77.10;;;;;;5034920;28;20045;-65
2022/12/01 05:23:32;;;;;;;41.08;21.15;;;8.90;77.10;;;;;;5035290;28;20033;-65
2022/12/01 05:25:58;;;;;;;36.10;20.90;;;8.90;77.10;;;;;;5034973;28;20072;-65
2022/12/01 05:28:25;;;;;;;36.85;20.52;;;8.90;77.10;;;;;;5035102;28;20057;-65
2022/12/01 05:30:51;;;;;;;40.75;20.25;;;8.90;77.10;;;;;;5034150;28;20040;-65
2022/12/01 05:33:17;;;;;;;37.75;19.60;;;8.90;77.10;;;;;;5034595;28;20017;-65
2022/12/01 05:35:42;;;;;;;35.70;19.40;;;8.90;77.10;;;;;;5033626;28;20026;-65
2022/12/01 05:38:08;;;;;;;38.63;21.10;;;8.90;77.10;;;;;;5035115;28;20087;-65
2022/12/01 05:40:35;;;;;;;37.70;20.33;;;8.90;77.10;;;;;;5031868;28;20087;-65
2022/12/01 05:43:01;;;;;;;36.95;21.45;;;8.90;77.10;;;;;;5034196;28;20038;-65
2022/12/01 05:45:26;;;;;;;36.33;20.65;;;8.90;77.10;;;;;;5033410;28;20076;-65
2022/12/01 05:47:56;;;;;;;38.53;22.17;;;8.90;77.10;;;;;;5034496;28;20045;-65
2022/12/01 05:50:22;;;;;;;36.33;19.55;;;8.90;77.10;;;;;;5034209;28;20026;-65
2022/12/01 05:52:48;;;;;;;36.67;20.30;;;8.90;77.10;;;;;;5033846;28;20063;-63
2022/12/01 05:55:14;;;;;;;33.65;19.42;;;8.90;77.10;;;;;;5031840;28;20457;-63
2022/12/01 05:57:40;;;;;;;34.55;19.13;;;8.90;77.10;;;;;;5034581;28;20033;-64
2022/12/01 06:00:06;;;;;;;36.08;20.75;;;8.90;77.10;;;;;;5032235;28;20450;-64
2022/12/01 06:02:37;;;;;;;37.67;20.50;;;8.90;77.00;;;;;;5034633;28;20033;-64
2022/12/01 06:05:03;;;;;;;35.53;20.83;;;8.90;77.10;;;;;;5032099;28;20227;-65
2022/12/01 06:07:28;;;;;;;38.47;20.63;;;8.90;77.00;;;;;;5034159;28;20108;-65
2022/12/01 06:09:54;;;;;;;37.88;22.25;;;8.80;77.00;;;;;;5033214;28;20029;-65
2022/12/01 06:12:20;;;;;;;33.95;19.35;;;8.80;77.10;;;;;;5032838;28;20052;-65
2022/12/01 06:14:45;;;;;;;39.13;21.45;;;8.80;77.10;;;;;;5033190;28;20466;-66
2022/12/01 06:17:11;;;;;;;38.75;21.35;;;8.80;77.10;;;;;;5033031;28;20130;-65
2022/12/01 06:19:37;;;;;;;35.40;21.00;;;8.80;77.10;;;;;;5033262;28;20132;-65
2022/12/01 06:22:02;;;;;;;39.78;21.85;;;8.80;77.10;;;;;;5031223;28;20492;-65
2022/12/01 06:24:28;;;;;;;38.17;21.33;;;8.80;77.10;;;;;;5033021;28;20516;-65
2022/12/01 06:26:54;;;;;;;36.22;20.60;;;8.80;77.10;;;;;;5030791;28;20037;-65
2022/12/01 06:29:19;;;;;;;39.22;21.30;;;8.80;77.10;;;;;;5031859;28;20025;-65
2022/12/01 06:31:45;;;;;;;37.20;20.65;;;8.80;77.10;;;;;;5028599;28;20037;-65
2022/12/01 06:34:11;;;;;;;38.40;20.85;;;8.80;77.10;;;;;;5034197;28;20032;-65
2022/12/01 06:36:36;;;;;;;36.90;21.08;;;8.80;77.10;;;;;;5032675;28;20033;-65
2022/12/01 06:39:08;;;;;;;36.67;22.13;;;8.80;77.10;;;;;;5033237;28;20025;-65
2022/12/01 06:41:35;;;;;;;34.67;20.23;;;8.70;77.10;;;;;;5047781;28;20156;-65
2022/12/01 06:44:01;;;;;;;41.08;23.17;;;8.70;77.10;;;;;;5031152;28;20064;-65
2022/12/01 06:46:27;;;;;;;39.47;21.33;;;8.70;77.10;;;;;;5033061;28;20026;-65
2022/12/01 06:48:53;;;;;;;39.00;21.23;;;8.70;77.20;;;;;;5034135;28;20044;-64
2022/12/01 06:51:18;;;;;;;40.20;22.27;;;8.70;77.10;;;;;;5033233;28;20028;-65
2022/12/01 06:53:44;;;;;;;41.88;22.42;;;8.70;77.20;;;;;;5034356;28;20037;-63
2022/12/01 06:56:10;;;;;;;41.08;22.90;;;8.70;77.20;;;;;;5032262;28;20041;-63
2022/12/01 06:58:35;;;;;;;45.17;23.15;;;8.70;77.20;;;;;;5046941;28;20018;-63
2022/12/01 07:01:08;;;;;;;42.88;23.42;;;8.70;77.20;;;;;;5032374;28;20479;-65
2022/12/01 07:03:34;;;;;;;44.88;23.17;;;8.70;77.30;;;;;;5033070;28;20033;-63
2022/12/01 07:06:01;;;;;;;41.00;21.98;;;8.70;77.30;;;;;;5034618;28;20068;-63
2022/12/01 07:08:28;;;;;;;42.70;23.02;;;8.70;77.30;;;;;;5032964;28;20421;-63
2022/12/01 07:11:06;;;;;;;42.78;22.55;;;8.60;77.30;;;;;;5035741;28;20057;-62
2022/12/01 07:13:31;;;;;;;39.78;22.80;;;8.70;77.40;;;;;;5035050;28;20036;-63
2022/12/01 07:15:57;;;;;;;45.08;23.20;;;8.70;77.40;;;;;;5037848;28;20374;-63
2022/12/01 07:18:23;;;;;;;44.65;22.67;;;8.70;77.40;;;;;;5036980;28;20032;-63
2022/12/01 07:20:49;;;;;;;43.95;23.58;;;8.70;77.40;;;;;;5036827;28;20466;-63
2022/12/01 07:23:14;;;;;;;45.17;23.90;;;8.70;78.10;;;;;;5035767;28;20025;-63
2022/12/01 07:25:40;;;;;;;42.47;22.95;;;8.60;77.30;;;;;;5037439;28;20096;-63
2022/12/01 07:28:06;;;;;;;46.85;22.88;;;8.70;77.50;;;;;;5036154;28;20028;-64
2022/12/01 07:30:31;;;;;;;44.05;22.40;;;8.70;77.40;;;;;;5037383;28;20030;-63
2022/12/01 07:32:58;;;;;;;45.45;24.58;;;8.70;77.40;;;;;;5035425;28;20080;-63
2022/12/01 07:35:23;;;;;;;46.88;23.65;;;8.70;77.40;;;;;;5036957;28;20029;-63
2022/12/01 07:37:56;;;;;;;49.28;24.17;;;8.70;77.40;;;;;;5034634;28;20030;-63
2022/12/01 07:40:22;;;;;;;43.22;23.92;;;8.80;77.40;;;;;;5036403;28;20091;-63
2022/12/01 07:42:48;;;;;;;45.50;22.83;;;8.80;77.40;;;;;;5033084;28;20465;-64
2022/12/01 07:45:14;;;;;;;45.17;23.98;;;8.80;77.30;;;;;;5036976;28;20021;-64
2022/12/01 07:47:39;;;;;;;47.95;24.02;;;8.80;77.20;;;;;;5034832;28;20144;-64
2022/12/01 07:50:06;;;;;;;46.35;23.30;;;8.90;77.10;;;;;;5037318;28;20055;-65
2022/12/01 07:52:31;;;;;;;46.60;23.90;;;8.90;77.10;;;;;;5035961;28;20430;-64
2022/12/01 07:54:57;;;;;;;53.38;25.23;;;8.90;77.10;;;;;;5036154;28;20030;-65
2022/12/01 07:57:23;;;;;;;48.90;23.88;;;8.90;77.10;;;;;;5016666;28;20344;-65
2022/12/01 07:59:48;;;;;;;51.28;26.05;;;8.80;77.00;;;;;;5033812;28;20076;-67
2022/12/01 08:02:14;;;;;;;51.10;26.20;;;8.90;77.10;;;;;;5036233;28;20133;-66
2022/12/01 08:04:41;;;;;;;46.88;22.73;;;8.90;77.10;;;;;;5035858;28;20033;-66
2022/12/01 08:07:07;;;;;;;49.28;24.80;;;8.80;77.10;;;;;;5037051;28;20036;-66
2022/12/01 08:09:32;;;;;;;46.88;24.83;;;8.80;77.10;;;;;;5034989;28;20021;-66
2022/12/01 08:11:58;;;;;;;50.15;25.23;;;8.80;77.00;;;;;;5033804;28;20522;-66
2022/12/01 08:14:23;;;;;;;53.42;25.80;;;8.80;77.00;;;;;;5036016;28;20021;-66
2022/12/01 08:16:49;;;;;;;51.72;25.60;;;8.80;77.00;;;;;;5036436;28;20462;-66
2022/12/01 08:19:14;;;;;;;50.10;24.50;;;8.80;77.00;;;;;;5035127;28;20125;-66
2022/12/01 08:21:40;;;;;;;45.78;23.00;;;8.80;77.00;;;;;;5036276;28;20091;-66
2022/12/01 08:24:06;;;;;;;49.47;24.00;;;8.80;76.90;;;;;;5033411;28;20498;-66
2022/12/01 08:26:32;;;;;;;48.58;23.48;;;8.90;76.90;;;;;;5032928;28;20455;-66
2022/12/01 08:28:58;;;;;;;49.22;25.35;;;8.90;76.80;;;;;;5050913;28;20370;-66
2022/12/01 08:31:27;;;;;;;52.70;25.38;;;8.90;76.80;;;;;;5036247;28;20022;-66
2022/12/01 08:33:53;;;;;;;53.20;24.48;;;8.90;76.70;;;;;;5034283;28;20373;-66
2022/12/01 08:36:20;;;;;;;52.20;24.90;;;8.90;76.60;;;;;;5036337;28;20064;-65
2022/12/01 08:38:48;;;;;;;44.42;23.20;;;8.90;76.60;;;;;;5035092;28;20342;-65
2022/12/01 08:41:14;;;;;;;49.10;25.27;;;9.00;76.70;;;;;;5033898;28;20030;-65
2022/12/01 08:43:43;;;;;;;50.97;24.20;;;8.90;76.60;;;;;;5032839;28;20045;-65
2022/12/01 08:46:09;;;;;;;49.80;25.02;;;9.00;76.70;;;;;;5034913;28;20040;-65
2022/12/01 08:48:34;;;;;;;51.90;25.40;;;9.00;76.60;;;;;;5035826;28;20083;-65
2022/12/01 08:51:28;;;;;;;47.08;24.90;;;9.00;76.60;;;;;;5033574;28;20378;-65
2022/12/01 08:53:56;;;;;;;52.35;26.05;;;9.00;76.50;;;;;;5034077;28;20037;-66
2022/12/01 08:56:23;;;;;;;51.65;25.90;;;9.10;76.60;;;;;;5034615;28;20038;-66
2022/12/01 08:58:50;;;;;;;52.10;25.42;;;9.10;77.20;;;;;;5033522;28;20063;-65
2022/12/01 09:01:17;;;;;;;46.20;23.42;;;9.10;76.50;;;;;;5028026;28;20087;-66
2022/12/01 09:03:43;;;;;;;55.75;25.02;;;9.10;76.50;;;;;;5034458;28;20112;-65
2022/12/01 09:06:15;;;;;;;49.38;26.65;;;9.10;76.50;;;;;;5034276;28;20512;-65
2022/12/01 09:08:41;;;;;;;51.85;25.13;;;9.10;76.40;;;;;;5034773;28;20037;-66
2022/12/01 09:11:13;;;;;;;51.10;24.85;;;9.10;76.40;;;;;;5035658;28;20021;-65
2022/12/01 09:13:40;;;;;;;49.05;24.67;;;9.10;76.30;;;;;;5030641;28;20041;-65
2022/12/01 09:16:12;;;;;;;45.80;23.42;;;9.10;76.30;;;;;;5033200;28;20108;-66
2022/12/01 09:18:38;;;;;;;46.83;23.95;;;9.10;76.20;;;;;;5035237;28;20029;-65
2022/12/01 09:21:15;;;;;;;50.97;24.90;;;9.20;76.20;;;;;;5035412;28;20209;-65
2022/12/01 09:23:41;;;;;;;50.90;24.70;;;9.10;76.10;;;;;;5035181;28;20036;-65
2022/12/01 09:26:08;;;;;;;51.17;26.30;;;9.20;76.10;;;;;;5034111;28;20444;-65
2022/12/01 09:28:34;;;;;;;48.38;26.17;;;9.20;76.10;;;;;;5032865;28;20104;-66
2022/12/01 09:31:08;;;;;;;52.50;26.13;;;9.20;76.10;;;;;;5034914;28;20109;-65
2022/12/01 09:33:34;;;;;;;51.28;24.98;;;9.20;76.00;;;;;;5034821;28;20068;-65
2022/12/01 09:36:01;;;;;;;49.33;24.40;;;9.20;76.00;;;;;;5034516;28;20029;-65
2022/12/01 09:38:31;;;;;;;49.28;24.75;;;9.30;76.10;;;;;;5035513;28;20369;-65
2022/12/01 09:41:01;;;;;;;49.95;25.77;;;9.30;76.00;;;;;;5035343;28;20091;-65
2022/12/01 09:43:35;;;;;;;49.47;24.42;;;9.30;76.00;;;;;;5033634;28;20070;-65
2022/12/01 09:46:06;;;;;;;45.55;24.70;;;9.30;76.00;;;;;;5035489;28;20037;-66
2022/12/01 09:48:41;;;;;;;51.08;23.85;;;9.30;75.90;;;;;;5035816;28;20033;-65
2022/12/01 09:51:18;;;;;;;50.10;24.00;;;9.30;75.90;;;;;;5034523;28;20363;-65
2022/12/01 09:53:49;;;;;;;51.88;25.45;;;9.30;75.80;;;;;;5034956;28;20021;-65
2022/12/01 09:56:29;;;;;;;52.17;24.52;;;9.30;75.80;;;;;;5035416;28;20034;-65
2022/12/01 09:59:01;;;;;;;49.53;23.65;;;9.30;75.80;;;;;;5035084;28;20056;-65
2022/12/01 10:01:34;;;;;;;54.38;26.35;;;9.40;75.80;;;;;;5033460;28;20087;-65
2022/12/01 10:04:13;;;;;;;47.92;24.98;;;9.40;75.80;;;;;;5032675;28;20045;-65
2022/12/01 10:06:53;;;;;;;44.58;22.83;;;9.40;75.70;;;;;;5034200;28;20125;-65
2022/12/01 10:09:48;;;;;;;48.90;24.63;;;9.40;75.60;;;;;;5033911;28;20429;-65
2022/12/01 10:12:16;;;;;;;47.95;23.67;;;9.40;75.50;;;;;;5034701;28;20049;-65
2022/12/01 10:14:45;;;;;;;44.50;22.33;;;9.40;75.50;;;;;;5035003;28;20052;-65
2022/12/01 10:17:48;;;;;;;47.72;25.45;;;9.40;75.50;;;;;;5035244;28;20025;-65
2022/12/01 10:20:43;;;;;;;47.63;23.58;;;9.50;75.40;;;;;;5033458;28;20057;-65
2022/12/01 10:23:29;;;;;;;46.90;24.92;;;9.50;75.40;;;;;;5034456;28;20029;-65
2022/12/01 10:26:06;;;;;;;47.38;23.85;;;9.40;75.30;;;;;;5034708;28;20052;-65
2022/12/01 10:29:07;;;;;;;41.63;23.35;;;9.40;75.40;;;;;;5034577;28;20076;-65
2022/12/01 10:32:08;;;;;;;41.92;21.98;;;9.50;75.20;;;;;;5034589;28;20033;-65
2022/12/01 10:34:38;;;;;;;47.38;23.70;;;9.50;75.20;;;;;;5033128;28;20069;-65
2022/12/01 10:37:04;;;;;;;45.60;24.23;;;9.50;75.30;;;;;;5034891;28;20389;-65
2022/12/01 10:39:37;;;;;;;44.42;22.02;;;9.50;75.30;;;;;;5034514;28;20029;-65
2022/12/01 10:42:13;;;;;;;42.60;22.58;;;9.50;75.20;;;;;;5033236;28;20037;-65
2022/12/01 10:44:39;;;;;;;41.08;21.73;;;9.50;75.10;;;;;;5034487;28;20053;-65
2022/12/01 10:47:16;;;;;;;44.08;24.40;;;9.60;75.00;;;;;;5033231;28;20069;-65
2022/12/01 10:49:41;;;;;;;43.35;24.00;;;9.60;74.90;;;;;;5034153;28;20072;-65
2022/12/01 10:52:27;;;;;;;44.17;24.70;;;9.60;74.90;;;;;;5032838;28;20052;-65
2022/12/01 10:54:53;;;;;;;42.78;22.73;;;9.70;74.70;;;;;;5034210;28;20121;-65
2022/12/01 10:57:19;;;;;;;41.25;24.13;;;9.70;74.60;;;;;;5034152;28;20060;-65
2022/12/01 10:59:50;;;;;;;39.72;23.38;;;9.80;74.40;;;;;;5034220;28;20191;-65
2022/12/01 11:02:22;;;;;;;43.55;24.08;;;9.90;74.30;;;;;;5034067;28;20458;-65
2022/12/01 11:04:54;;;;;;;41.63;23.83;;;10.00;74.10;;;;;;5032582;28;20077;-66
2022/12/01 11:07:40;;;;;;;42.50;22.55;;;10.20;73.70;;;;;;5034167;28;20061;-65
2022/12/01 11:10:28;;;;;;;44.15;23.85;;;10.40;73.30;;;;;;5031650;28;20128;-65
2022/12/01 11:13:15;;;;;;;39.47;21.60;;;10.60;73.00;;;;;;5026783;28;20025;-65
2022/12/01 11:15:52;;;;;;;42.33;22.83;;;10.70;72.80;;;;;;5033630;28;20037;-66
2022/12/01 11:18:32;;;;;;;43.65;23.65;;;10.70;72.40;;;;;;5032834;28;20030;-65
2022/12/01 11:21:13;;;;;;;39.20;22.02;;;10.70;72.40;;;;;;5037252;28;20433;-66
2022/12/01 11:23:50;;;;;;;39.90;22.42;;;10.70;72.40;;;;;;5047000;28;20025;-66
2022/12/01 11:26:31;;;;;;;36.47;19.67;;;10.70;72.30;;;;;;5034269;28;20041;-66
2022/12/01 11:28:59;;;;;;;42.38;22.38;;;10.70;72.10;;;;;;5032290;28;20061;-65
2022/12/01 11:31:41;;;;;;;37.10;21.38;;;10.50;72.10;;;;;;5025729;28;20156;-65
2022/12/01 11:34:25;;;;;;;41.03;21.55;;;10.50;72.10;;;;;;5032803;28;20030;-65
2022/12/01 11:36:55;;;;;;;39.35;22.05;;;10.50;72.10;;;;;;5032715;28;20415;-66
2022/12/01 11:39:33;;;;;;;38.53;20.65;;;10.50;72.10;;;;;;5026898;28;20026;-66
2022/12/01 11:42:02;;;;;;;36.92;21.92;;;10.40;72.00;;;;;;5029121;28;20025;-66
2022/12/01 11:44:30;;;;;;;41.28;22.05;;;10.40;72.10;;;;;;5028625;28;20025;-66
2022/12/01 11:46:57;;;;;;;40.13;21.10;;;10.30;72.10;;;;;;5031682;28;20439;-66
2022/12/01 11:49:27;;;;;;;37.17;19.45;;;10.30;72.10;;;;;;5025896;28;20029;-65
2022/12/01 11:51:53;;;;;;;34.45;18.70;;;10.30;72.00;;;;;;5031074;28;20075;-64
2022/12/01 11:54:24;;;;;;;33.15;18.85;;;10.20;71.80;;;;;;5030249;28;20108;-65
2022/12/01 11:56:52;;;;;;;33.55;18.38;;;10.20;71.70;;;;;;5034575;28;20029;-65
2022/12/01 11:59:23;;;;;;;31.45;18.33;;;10.10;71.60;;;;;;5029930;28;20026;-65
2022/12/01 12:02:21;;;;;;;30.73;18.27;;;10.10;71.60;;;;;;5034061;28;20041;-65
2022/12/01 12:04:56;;;;;;;32.90;17.95;;;10.10;71.60;;;;;;5034679;28;20067;-65
2022/12/01 12:07:46;;;;;;;35.13;18.85;;;10.10;71.50;;;;;;5036213;28;20036;-65
2022/12/01 12:10:27;;;;;;;30.70;18.92;;;10.10;71.50;;;;;;5031706;28;20030;-66
2022/12/01 12:13:04;;;;;;;30.17;17.00;;;10.10;71.50;;;;;;5036760;28;20053;-65
2022/12/01 12:15:48;;;;;;;31.52;17.55;;;10.10;71.40;;;;;;5034623;28;20052;-66
2022/12/01 12:18:52;;;;;;;27.50;16.38;;;10.10;71.30;;;;;;5035083;28;21290;-66
2022/12/01 12:21:33;;;;;;;32.50;17.05;;;10.10;71.20;;;;;;5014740;28;20042;-65
2022/12/01 12:24:26;;;;;;;28.83;16.55;;;10.10;71.00;;;;;;5014256;28;20450;-66
2022/12/01 12:27:24;;;;;;;29.75;17.58;;;10.10;70.90;;;;;;5005610;28;20033;-64
2022/12/01 12:30:15;;;;;;;32.30;16.65;;;10.20;70.80;;;;;;5020397;28;20136;-65
2022/12/01 12:33:02;;;;;;;35.80;17.85;;;10.10;70.80;;;;;;5013574;28;20084;-65
2022/12/01 12:35:31;;;;;;;30.90;16.65;;;10.10;70.70;;;;;;5015241;28;20034;-64
2022/12/01 12:38:22;;;;;;;31.23;18.00;;;10.10;70.80;;;;;;5015116;28;20049;-65
2022/12/01 12:40:54;;;;;;;30.40;17.00;;;10.10;70.70;;;;;;5007397;28;20410;-64
2022/12/01 12:43:57;;;;;;;33.65;18.70;;;10.10;70.60;;;;;;5015218;28;20049;-65
2022/12/01 12:46:32;;;;;;;28.65;16.25;;;10.10;70.50;;;;;;5015101;28;20095;-64
2022/12/01 12:49:12;;;;;;;30.10;15.98;;;10.20;70.60;;;;;;5015379;28;20034;-65
2022/12/01 12:51:58;;;;;;;31.73;16.67;;;10.20;70.50;;;;;;5014039;28;20066;-65
2022/12/01 12:54:44;;;;;;;29.55;18.05;;;10.10;70.50;;;;;;5015413;28;20026;-65
2022/12/01 12:57:24;;;;;;;30.58;16.85;;;10.10;70.40;;;;;;5023997;28;20127;-65
2022/12/01 12:59:53;;;;;;;33.85;18.65;;;10.10;70.40;;;;;;5036446;28;20033;-65